createdAt,value
2017-11-14T13:22:53.996Z,5324
2017-11-14T13:23:53.462Z,5236
2017-11-14T13:24:22.832Z,5204
2017-11-14T13:24:53.826Z,5180
2017-11-14T13:25:51.306Z,5152
2017-11-14T13:26:22.625Z,5168
2017-11-14T13:26:53.132Z,5152
2017-11-14T13:27:24.472Z,5120
2017-11-14T13:27:54.881Z,5124
2017-11-14T13:28:25.248Z,5088
2017-11-14T13:28:54.826Z,5068
2017-11-14T13:29:23.732Z,5084
2017-11-14T13:29:51.933Z,5064
2017-11-14T13:30:20.702Z,5004
2017-11-14T13:30:49.030Z,4956
2017-11-14T13:31:16.812Z,4904
2017-11-14T13:31:44.766Z,4856
2017-11-14T13:32:12.817Z,4808
2017-11-14T13:32:40.808Z,4772
2017-11-14T13:33:08.837Z,4756
2017-11-14T13:33:38.125Z,4720
2017-11-14T13:34:08.945Z,4672
2017-11-14T13:34:37.130Z,4652
2017-11-14T13:35:07.076Z,4652
2017-11-14T13:35:37.695Z,4600
2017-11-14T13:36:08.155Z,4536
2017-11-14T13:36:36.125Z,4456
2017-11-14T13:37:05.835Z,4400
2017-11-14T13:37:34.606Z,4332
2017-11-14T13:38:02.793Z,4300
2017-11-14T13:38:30.884Z,4296
2017-11-14T13:38:58.748Z,4288
2017-11-14T13:39:26.935Z,4284
2017-11-14T13:39:54.995Z,4312
2017-11-14T13:40:22.975Z,4316
2017-11-14T13:40:51.124Z,4308
2017-11-14T13:41:19.209Z,4284
2017-11-14T13:41:47.167Z,4264
2017-11-14T13:42:15.105Z,4244
2017-11-14T13:42:43.151Z,4208
2017-11-14T13:43:11.099Z,4164
2017-11-14T13:43:39.069Z,4132
2017-11-14T13:44:07.234Z,4104
2017-11-14T13:44:35.278Z,4120
2017-11-14T13:45:03.459Z,4140
2017-11-14T13:45:31.631Z,4160
2017-11-14T13:45:59.497Z,4148
2017-11-14T13:46:27.550Z,4140
2017-11-14T13:46:55.626Z,4120
2017-11-14T13:47:23.706Z,4116
2017-11-14T13:47:51.793Z,4136
2017-11-14T13:48:19.830Z,4148
2017-11-14T13:48:47.856Z,4156
2017-11-14T13:49:15.923Z,4136
2017-11-14T13:49:44.086Z,4072
2017-11-14T13:50:12.094Z,4044
2017-11-14T13:50:40.347Z,4040
2017-11-14T13:51:08.414Z,4016
2017-11-14T13:51:36.384Z,4000
2017-11-14T13:52:04.672Z,4004
2017-11-14T13:52:32.619Z,3964
2017-11-14T13:53:00.852Z,3908
2017-11-14T13:53:28.809Z,3892
2017-11-14T13:53:56.790Z,3916
2017-11-14T13:54:24.861Z,3916
2017-11-14T13:54:52.802Z,3904
2017-11-14T13:55:20.791Z,3920
2017-11-14T13:55:48.781Z,3948
2017-11-14T13:56:16.973Z,3948
2017-11-14T13:56:44.967Z,3920
2017-11-14T13:57:12.926Z,3884
2017-11-14T13:57:40.909Z,3864
2017-11-14T13:58:09.201Z,3852
2017-11-14T13:58:37.256Z,3848
2017-11-14T13:59:05.430Z,3832
2017-11-14T13:59:33.586Z,3848
2017-11-14T14:00:01.779Z,3868
2017-11-14T14:00:30.331Z,3888
2017-11-14T14:00:58.483Z,3892
2017-11-14T14:01:26.643Z,3888
2017-11-14T14:01:54.727Z,3856
2017-11-14T14:02:22.894Z,3840
2017-11-14T14:02:50.979Z,3872
2017-11-14T14:03:19.860Z,3892
2017-11-14T14:03:47.932Z,3888
2017-11-14T14:04:15.893Z,3876
2017-11-14T14:04:44.292Z,3860
2017-11-14T14:05:12.379Z,3828
2017-11-14T14:05:40.464Z,3792
2017-11-14T14:06:08.337Z,3780
2017-11-14T14:06:36.410Z,3764
2017-11-14T14:07:04.571Z,3764
2017-11-14T14:07:32.834Z,3752
2017-11-14T14:08:00.969Z,3744
2017-11-14T14:08:29.164Z,3744
2017-11-14T14:08:57.218Z,3728
2017-11-14T14:09:25.285Z,3704
2017-11-14T14:09:53.670Z,3692
2017-11-14T14:10:22.103Z,3688
2017-11-14T14:11:05.229Z,3696
2017-11-14T14:11:33.735Z,3696
2017-11-14T14:12:02.618Z,3696
2017-11-14T14:12:31.163Z,3700
2017-11-14T14:12:59.242Z,3696
2017-11-14T14:13:28.017Z,3680
2017-11-14T14:13:57.261Z,3668
2017-11-14T14:14:25.730Z,3660
2017-11-14T14:15:08.309Z,3704
2017-11-14T14:15:36.619Z,3724
2017-11-14T14:16:05.071Z,3728
2017-11-14T14:16:33.633Z,3732
2017-11-14T14:17:02.306Z,3732
2017-11-14T14:17:45.805Z,3732
2017-11-14T14:18:14.628Z,3716
2017-11-14T14:18:43.369Z,3708
2017-11-14T14:19:12.654Z,3716
2017-11-14T14:19:41.183Z,3720
2017-11-14T14:20:10.251Z,3720
2017-11-14T14:21:22.699Z,3752
2017-11-14T14:21:51.051Z,3744
2017-11-14T14:22:19.244Z,3748
2017-11-14T14:22:47.352Z,3744
2017-11-14T14:23:15.899Z,3724
2017-11-14T14:23:44.335Z,3712
2017-11-14T14:24:12.639Z,3704
2017-11-14T14:24:55.829Z,3704
2017-11-14T14:25:39.253Z,3696
2017-11-14T14:26:08.606Z,3692
2017-11-14T14:26:36.517Z,3668
2017-11-14T14:27:05.524Z,3660
2017-11-14T14:27:35.935Z,3644
2017-11-14T14:28:04.844Z,3636
2017-11-14T14:28:48.406Z,3624
2017-11-14T14:29:17.418Z,3644
2017-11-14T14:29:45.924Z,3648
2017-11-14T14:30:28.874Z,3628
2017-11-14T14:30:57.185Z,3624
2017-11-14T14:31:25.766Z,3616
2017-11-14T14:31:53.940Z,3616
2017-11-14T14:32:23.574Z,3640
2017-11-14T14:32:51.821Z,3664
2017-11-14T14:33:20.133Z,3676
2017-11-14T14:33:48.199Z,3696
2017-11-14T14:34:31.013Z,3704
2017-11-14T14:35:00.112Z,3688
2017-11-14T14:35:28.168Z,3692
2017-11-14T14:35:56.039Z,3692
2017-11-14T14:36:24.095Z,3684
2017-11-14T14:36:52.302Z,3704
2017-11-14T14:37:20.278Z,3728
2017-11-14T14:37:48.467Z,3740
2017-11-14T14:38:16.424Z,3732
2017-11-14T14:38:44.621Z,3712
2017-11-14T14:39:12.716Z,3676
2017-11-14T14:39:40.803Z,3644
2017-11-14T14:40:08.770Z,3632
2017-11-14T14:40:36.859Z,3624
2017-11-14T14:41:04.991Z,3620
2017-11-14T14:41:33.122Z,3620
2017-11-14T14:42:01.132Z,3624
2017-11-14T14:42:29.362Z,3648
2017-11-14T14:42:58.043Z,3660
2017-11-14T14:43:26.446Z,3652
2017-11-14T14:43:54.338Z,3648
2017-11-14T14:44:22.334Z,3640
2017-11-14T14:44:50.383Z,3648
2017-11-14T14:45:18.596Z,3644
2017-11-14T14:45:46.597Z,3640
2017-11-14T14:46:14.554Z,3644
2017-11-14T14:46:42.782Z,3628
2017-11-14T14:47:11.045Z,3636
2017-11-14T14:47:39.204Z,3644
2017-11-14T14:48:07.290Z,3624
2017-11-14T14:48:35.276Z,3636
2017-11-14T14:49:03.477Z,3612
2017-11-14T14:49:31.650Z,3580
2017-11-14T14:49:59.485Z,3568
2017-11-14T14:50:27.801Z,3568
2017-11-14T14:50:55.786Z,3612
2017-11-14T14:51:23.816Z,3644
2017-11-14T14:51:51.798Z,3680
2017-11-14T14:52:19.661Z,3692
2017-11-14T14:52:47.682Z,3680
2017-11-14T14:53:16.050Z,3656
2017-11-14T14:53:44.021Z,3632
2017-11-14T14:54:12.018Z,3632
2017-11-14T14:54:40.018Z,3632
2017-11-14T14:55:08.116Z,3636
2017-11-14T14:55:36.203Z,3648
2017-11-14T14:56:04.146Z,3640
2017-11-14T14:56:32.230Z,3636
2017-11-14T14:57:00.434Z,3640
2017-11-14T14:57:28.459Z,3632
2017-11-14T14:57:56.597Z,3652
2017-11-14T14:58:25.011Z,3660
2017-11-14T14:58:52.854Z,3668
2017-11-14T14:59:20.865Z,3676
2017-11-14T14:59:48.750Z,3684
2017-11-14T15:00:16.813Z,3688
2017-11-14T15:00:45.010Z,3684
2017-11-14T15:01:13.010Z,3660
2017-11-14T15:01:41.196Z,3636
2017-11-14T15:02:09.278Z,3628
2017-11-14T15:02:37.347Z,3632
2017-11-14T15:03:05.534Z,3608
2017-11-14T15:03:33.510Z,3580
2017-11-14T15:04:01.629Z,3564
2017-11-14T15:04:29.889Z,3548
2017-11-14T15:04:58.158Z,3548
2017-11-14T15:05:26.270Z,3536
2017-11-14T15:05:54.318Z,3524
2017-11-14T15:06:36.880Z,3532
2017-11-14T15:07:05.070Z,3524
2017-11-14T15:07:33.587Z,3508
2017-11-14T15:08:02.643Z,3500
2017-11-14T15:08:31.210Z,3496
2017-11-14T15:08:59.471Z,3516
2017-11-14T15:09:27.602Z,3524
2017-11-14T15:09:56.335Z,3524
2017-11-14T15:10:24.532Z,3512
2017-11-14T15:10:52.689Z,3528
2017-11-14T15:12:04.072Z,3540
2017-11-14T15:12:32.554Z,3528
2017-11-14T15:13:00.719Z,3536
2017-11-14T15:13:43.158Z,3552
2017-11-14T15:14:25.724Z,3548
2017-11-14T15:15:08.511Z,3556
2017-11-14T15:15:36.592Z,3560
2017-11-14T15:16:04.942Z,3568
2017-11-14T15:16:32.965Z,3572
2017-11-14T15:17:01.074Z,3568
2017-11-14T15:17:29.596Z,3572
2017-11-14T15:17:58.491Z,3556
2017-11-14T15:18:27.319Z,3548
2017-11-14T15:18:55.413Z,3532
2017-11-14T15:19:23.682Z,3516
2017-11-14T15:19:51.817Z,3512
2017-11-14T15:20:20.050Z,3508
2017-11-14T15:20:48.164Z,3512
2017-11-14T15:21:16.138Z,3528
2017-11-14T15:21:44.115Z,3540
2017-11-14T15:22:12.428Z,3544
2017-11-14T15:22:40.644Z,3544
2017-11-14T15:23:08.927Z,3544
2017-11-14T15:23:36.980Z,3540
2017-11-14T15:24:05.065Z,3536
2017-11-14T15:24:33.185Z,3528
2017-11-14T15:25:01.386Z,3524
2017-11-14T15:25:29.461Z,3508
2017-11-14T15:25:57.324Z,3492
2017-11-14T15:26:25.464Z,3464
2017-11-14T15:26:53.423Z,3444
2017-11-14T15:27:21.435Z,3436
2017-11-14T15:27:49.464Z,3436
2017-11-14T15:28:17.439Z,3428
2017-11-14T15:28:45.790Z,3432
2017-11-14T15:29:13.978Z,3428
2017-11-14T15:29:56.950Z,3428
2017-11-14T15:30:24.997Z,3424
2017-11-14T15:30:53.399Z,3424
2017-11-14T15:31:21.691Z,3428
2017-11-14T15:31:50.445Z,3424
2017-11-14T15:32:18.551Z,3424
2017-11-14T15:32:46.789Z,3444
2017-11-14T15:33:16.067Z,3440
2017-11-14T15:34:26.906Z,3464
2017-11-14T15:34:54.944Z,3452
2017-11-14T15:35:23.094Z,3460
2017-11-14T15:35:51.174Z,3432
2017-11-14T15:36:19.265Z,3424
2017-11-14T15:36:47.427Z,3436
2017-11-14T15:37:15.516Z,3420
2017-11-14T15:37:43.496Z,3404
2017-11-14T15:38:11.555Z,3404
2017-11-14T15:38:39.673Z,3400
2017-11-14T15:39:07.810Z,3408
2017-11-14T15:39:35.891Z,3412
2017-11-14T15:40:03.893Z,3432
2017-11-14T15:40:32.029Z,3440
2017-11-14T15:41:00.049Z,3420
2017-11-14T15:41:28.013Z,3416
2017-11-14T15:41:56.118Z,3428
2017-11-14T15:42:24.722Z,3420
2017-11-14T15:42:52.677Z,3420
2017-11-14T15:43:20.600Z,3408
2017-11-14T15:43:48.770Z,3408
2017-11-14T15:44:16.963Z,3400
2017-11-14T15:44:45.157Z,3388
2017-11-14T15:45:13.290Z,3384
2017-11-14T15:45:41.461Z,3380
2017-11-14T15:46:09.469Z,3384
2017-11-14T15:46:37.559Z,3388
2017-11-14T15:47:05.711Z,3376
2017-11-14T15:47:33.577Z,3372
2017-11-14T15:48:01.745Z,3360
2017-11-14T15:48:29.919Z,3348
2017-11-14T15:48:57.868Z,3348
2017-11-14T15:49:26.034Z,3348
2017-11-14T15:49:54.122Z,3340
2017-11-14T15:50:22.087Z,3340
2017-11-14T15:50:49.953Z,3344
2017-11-14T15:51:18.093Z,3340
2017-11-14T15:51:46.218Z,3340
2017-11-14T15:52:14.088Z,3332
2017-11-14T15:52:41.929Z,3312
2017-11-14T15:53:10.042Z,3304
2017-11-14T15:53:37.993Z,3292
2017-11-14T15:54:05.855Z,3280
2017-11-14T15:54:33.795Z,3272
2017-11-14T15:55:01.987Z,3264
2017-11-14T15:55:29.990Z,3260
2017-11-14T15:55:58.081Z,3260
2017-11-14T15:56:26.329Z,3260
2017-11-14T15:56:54.704Z,3256
2017-11-14T15:57:22.874Z,3252
2017-11-14T15:57:50.910Z,3256
2017-11-14T15:58:18.935Z,3252
2017-11-14T15:58:46.589Z,3264
2017-11-14T15:59:14.642Z,3264
2017-11-14T15:59:42.635Z,3256
2017-11-14T16:00:10.569Z,3252
2017-11-14T16:00:38.425Z,3248
2017-11-14T16:01:06.437Z,3248
2017-11-14T16:01:34.509Z,3252
2017-11-14T16:02:02.658Z,3240
2017-11-14T16:02:30.619Z,3236
2017-11-14T16:02:58.483Z,3228
2017-11-14T16:03:26.459Z,3232
2017-11-14T16:03:54.527Z,3224
2017-11-14T16:04:22.511Z,3212
2017-11-14T16:04:50.695Z,3208
2017-11-14T16:05:18.752Z,3200
2017-11-14T16:05:46.754Z,3196
2017-11-14T16:06:14.624Z,3184
2017-11-14T16:06:42.708Z,3180
2017-11-14T16:07:10.501Z,3176
2017-11-14T16:07:38.603Z,3168
2017-11-14T16:08:06.492Z,3160
2017-11-14T16:08:49.448Z,3152
2017-11-14T16:09:17.687Z,3152
2017-11-14T16:09:45.851Z,3156
2017-11-14T16:10:13.878Z,3160
2017-11-14T16:10:42.021Z,3172
2017-11-14T16:11:10.098Z,3184
2017-11-14T16:11:38.304Z,3184
2017-11-14T16:12:06.423Z,3192
2017-11-14T16:12:34.417Z,3196
2017-11-14T16:13:03.091Z,3204
2017-11-14T16:13:31.563Z,3200
2017-11-14T16:14:00.346Z,3204
2017-11-14T16:14:28.854Z,3212
2017-11-14T16:14:57.094Z,3208
2017-11-14T16:15:25.326Z,3208
2017-11-14T16:15:53.460Z,3204
2017-11-14T16:16:21.506Z,3200
2017-11-14T16:16:49.564Z,3204
2017-11-14T16:17:17.446Z,3196
2017-11-14T16:17:45.461Z,3200
2017-11-14T16:18:13.529Z,3188
2017-11-14T16:18:41.703Z,3184
2017-11-14T16:19:09.574Z,3188
2017-11-14T16:19:37.795Z,3188
2017-11-14T16:20:05.761Z,3192
2017-11-14T16:20:33.763Z,3204
2017-11-14T16:21:01.888Z,3200
2017-11-14T16:21:30.188Z,3192
2017-11-14T16:21:58.250Z,3204
2017-11-14T16:22:26.417Z,3204
2017-11-14T16:22:55.290Z,3188
2017-11-14T16:23:23.453Z,3180
2017-11-14T16:23:51.633Z,3180
2017-11-14T16:24:20.102Z,3184
2017-11-14T16:24:48.467Z,3192
2017-11-14T16:25:16.543Z,3196
2017-11-14T16:25:44.542Z,3184
2017-11-14T16:26:12.674Z,3184
2017-11-14T16:26:40.676Z,3176
2017-11-14T16:27:08.734Z,3172
2017-11-14T16:27:36.718Z,3168
2017-11-14T16:28:04.607Z,3176
2017-11-14T16:28:32.514Z,3184
2017-11-14T16:29:00.509Z,3180
2017-11-14T16:29:28.679Z,3184
2017-11-14T16:29:56.715Z,3188
2017-11-14T16:30:24.897Z,3184
2017-11-14T16:30:53.175Z,3176
2017-11-14T16:31:21.364Z,3172
2017-11-14T16:31:49.694Z,3172
2017-11-14T16:32:17.671Z,3176
2017-11-14T16:32:45.892Z,3184
2017-11-14T16:33:14.050Z,3196
2017-11-14T16:33:42.031Z,3192
2017-11-14T16:34:10.426Z,3180
2017-11-14T16:34:38.256Z,3184
2017-11-14T16:35:06.331Z,3200
2017-11-14T16:35:34.333Z,3188
2017-11-14T16:36:02.506Z,3184
2017-11-14T16:36:30.700Z,3152
2017-11-14T16:36:58.591Z,3160
2017-11-14T16:37:27.019Z,3168
2017-11-14T16:37:55.147Z,3164
2017-11-14T16:38:23.220Z,3152
2017-11-14T16:38:51.080Z,3152
2017-11-14T16:39:19.232Z,3144
2017-11-14T16:39:47.329Z,3140
2017-11-14T16:40:15.516Z,3156
2017-11-14T16:40:43.570Z,3156
2017-11-14T16:41:11.446Z,3156
2017-11-14T16:41:39.420Z,3168
2017-11-14T16:42:07.491Z,3152
2017-11-14T16:42:35.592Z,3148
2017-11-14T16:43:03.812Z,3144
2017-11-14T16:43:31.913Z,3136
2017-11-14T16:44:00.057Z,3124
2017-11-14T16:44:28.021Z,3120
2017-11-14T16:44:56.091Z,3124
2017-11-14T16:45:24.109Z,3104
2017-11-14T16:45:52.374Z,3096
2017-11-14T16:46:20.820Z,3092
2017-11-14T16:46:49.065Z,3092
2017-11-14T16:47:16.950Z,3092
2017-11-14T16:47:44.941Z,3092
2017-11-14T16:48:13.157Z,3100
2017-11-14T16:48:41.094Z,3084
2017-11-14T16:49:09.255Z,3100
2017-11-14T16:49:37.273Z,3092
2017-11-14T16:50:05.252Z,3088
2017-11-14T16:50:33.430Z,3088
2017-11-14T16:51:01.628Z,3084
2017-11-14T16:51:29.788Z,3076
2017-11-14T16:51:57.788Z,3072
2017-11-14T16:52:25.954Z,3068
2017-11-14T16:52:54.196Z,3068
2017-11-14T16:53:22.221Z,3064
2017-11-14T16:53:50.431Z,3060
2017-11-14T16:54:18.517Z,3056
2017-11-14T16:54:47.054Z,3052
2017-11-14T16:55:15.394Z,3052
2017-11-14T16:55:43.355Z,3048
2017-11-14T16:56:11.577Z,3056
2017-11-14T16:56:39.634Z,3048
2017-11-14T16:57:07.599Z,3044
2017-11-14T16:57:35.703Z,3048
2017-11-14T16:58:04.004Z,3048
2017-11-14T16:58:32.212Z,3048
2017-11-14T16:59:00.128Z,3044
2017-11-14T16:59:28.334Z,3048
2017-11-14T16:59:56.421Z,3048
2017-11-14T17:00:24.566Z,3048
2017-11-14T17:00:52.741Z,3044
2017-11-14T17:01:20.619Z,3044
2017-11-14T17:01:48.720Z,3044
2017-11-14T17:02:16.788Z,3044
2017-11-14T17:02:44.879Z,3040
2017-11-14T17:03:13.070Z,3040
2017-11-14T17:03:41.140Z,3044
2017-11-14T17:04:09.137Z,3040
2017-11-14T17:04:37.197Z,3036
2017-11-14T17:05:05.217Z,3036
2017-11-14T17:05:33.189Z,3040
2017-11-14T17:06:01.100Z,3048
2017-11-14T17:06:29.106Z,3064
2017-11-14T17:06:57.316Z,3068
2017-11-14T17:07:25.221Z,3048
2017-11-14T17:07:53.568Z,3040
2017-11-14T17:08:21.720Z,3048
2017-11-14T17:08:49.836Z,3052
2017-11-14T17:09:18.173Z,3032
2017-11-14T17:09:46.243Z,3016
2017-11-14T17:10:14.310Z,3012
2017-11-14T17:10:42.426Z,3000
2017-11-14T17:11:11.213Z,2988
2017-11-14T17:11:40.544Z,2984
2017-11-14T17:12:08.618Z,2996
2017-11-14T17:12:36.489Z,2980
2017-11-14T17:13:04.499Z,2984
2017-11-14T17:13:32.571Z,2972
2017-11-14T17:14:00.604Z,2976
2017-11-14T17:14:28.693Z,2980
2017-11-14T17:14:56.843Z,2972
2017-11-14T17:15:25.073Z,2972
2017-11-14T17:16:07.637Z,2960
2017-11-14T17:16:35.887Z,2960
2017-11-14T17:17:03.958Z,2964
2017-11-14T17:17:31.970Z,2956
2017-11-14T17:18:00.155Z,2952
2017-11-14T17:18:28.346Z,2944
2017-11-14T17:18:56.409Z,2948
2017-11-14T17:20:07.178Z,2952
2017-11-14T17:20:35.338Z,2956
2017-11-14T17:21:03.425Z,2948
2017-11-14T17:21:31.353Z,2948
2017-11-14T17:21:59.306Z,2944
2017-11-14T17:22:27.707Z,2940
2017-11-14T17:22:55.756Z,2944
2017-11-14T17:23:23.847Z,2952
2017-11-14T17:23:51.711Z,2956
2017-11-14T17:24:19.700Z,2956
2017-11-14T17:24:47.790Z,2964
2017-11-14T17:25:15.899Z,2952
2017-11-14T17:25:43.939Z,2960
2017-11-14T17:26:12.234Z,2952
2017-11-14T17:26:40.425Z,2944
2017-11-14T17:27:08.415Z,2948
2017-11-14T17:27:36.370Z,2932
2017-11-14T17:28:04.466Z,2928
2017-11-14T17:28:32.538Z,2928
2017-11-14T17:29:00.943Z,2920
2017-11-14T17:29:29.029Z,2912
2017-11-14T17:29:57.481Z,2924
2017-11-14T17:30:25.572Z,2932
2017-11-14T17:30:53.648Z,2912
2017-11-14T17:31:21.842Z,2916
2017-11-14T17:31:49.914Z,2936
2017-11-14T17:32:17.918Z,2940
2017-11-14T17:32:46.071Z,2940
2017-11-14T17:33:14.058Z,2936
2017-11-14T17:33:42.130Z,2928
2017-11-14T17:34:10.130Z,2924
2017-11-14T17:34:38.294Z,2916
2017-11-14T17:35:06.451Z,2908
2017-11-14T17:35:34.568Z,2904
2017-11-14T17:36:02.632Z,2920
2017-11-14T17:36:30.711Z,2912
2017-11-14T17:36:58.784Z,2908
2017-11-14T17:37:26.763Z,2916
2017-11-14T17:37:54.731Z,2916
2017-11-14T17:38:22.722Z,2912
2017-11-14T17:38:50.777Z,2904
2017-11-14T17:39:18.900Z,2908
2017-11-14T17:39:47.315Z,2900
2017-11-14T17:40:16.226Z,2912
2017-11-14T17:40:44.270Z,2912
2017-11-14T17:41:12.495Z,2920
2017-11-14T17:41:40.682Z,2916
2017-11-14T17:42:08.768Z,2900
2017-11-14T17:42:36.932Z,2892
2017-11-14T17:43:05.018Z,2888
2017-11-14T17:43:33.096Z,2880
2017-11-14T17:44:01.070Z,2876
2017-11-14T17:44:29.277Z,2864
2017-11-14T17:44:57.456Z,2868
2017-11-14T17:45:25.693Z,2860
2017-11-14T17:45:53.748Z,2852
2017-11-14T17:46:21.999Z,2844
2017-11-14T17:46:50.006Z,2844
2017-11-14T17:47:18.038Z,2836
2017-11-14T17:47:46.114Z,2844
2017-11-14T17:48:14.077Z,2852
2017-11-14T17:48:42.237Z,2868
2017-11-14T17:49:10.312Z,2872
2017-11-14T17:49:38.520Z,2884
2017-11-14T17:50:06.547Z,2872
2017-11-14T17:50:34.524Z,2868
2017-11-14T17:51:02.667Z,2868
2017-11-14T17:51:30.726Z,2856
2017-11-14T17:51:58.698Z,2852
2017-11-14T17:52:26.697Z,2852
2017-11-14T17:52:55.055Z,2856
2017-11-14T17:53:23.643Z,2848
2017-11-14T17:53:51.732Z,2844
2017-11-14T17:54:20.031Z,2852
2017-11-14T17:54:48.893Z,2844
2017-11-14T17:55:17.698Z,2836
2017-11-14T17:55:45.671Z,2844
2017-11-14T17:56:13.713Z,2836
2017-11-14T17:56:42.304Z,2832
2017-11-14T17:57:10.594Z,2836
2017-11-14T17:57:38.487Z,2820
2017-11-14T17:58:06.576Z,2812
2017-11-14T17:58:34.465Z,2812
2017-11-14T17:59:02.559Z,2808
2017-11-14T17:59:30.653Z,2800
2017-11-14T17:59:58.767Z,2800
2017-11-14T18:00:26.937Z,2780
2017-11-14T18:00:54.801Z,2788
2017-11-14T18:01:22.897Z,2780
2017-11-14T18:01:51.104Z,2764
2017-11-14T18:02:19.246Z,2792
2017-11-14T18:02:47.327Z,2768
2017-11-14T18:03:15.327Z,2780
2017-11-14T18:03:43.376Z,2816
2017-11-14T18:04:11.367Z,2772
2017-11-14T18:04:39.548Z,2776
2017-11-14T18:05:07.575Z,2772
2017-11-14T18:05:35.746Z,2788
2017-11-14T18:06:03.943Z,2756
2017-11-14T18:06:32.041Z,2752
2017-11-14T18:07:00.098Z,2768
2017-11-14T18:07:28.305Z,2764
2017-11-14T18:07:56.466Z,2756
2017-11-14T18:08:24.375Z,2772
2017-11-14T18:08:52.527Z,2752
2017-11-14T18:09:20.505Z,2764
2017-11-14T18:09:48.710Z,2756
2017-11-14T18:10:16.866Z,2748
2017-11-14T18:10:45.046Z,2756
2017-11-14T18:11:13.073Z,2748
2017-11-14T18:11:42.374Z,2728
2017-11-14T18:12:10.551Z,2728
2017-11-14T18:12:38.756Z,2732
2017-11-14T18:13:06.722Z,2704
2017-11-14T18:13:34.801Z,2716
2017-11-14T18:14:02.797Z,2704
2017-11-14T18:14:30.808Z,2696
2017-11-14T18:14:58.767Z,2696
2017-11-14T18:15:26.791Z,2696
2017-11-14T18:15:54.931Z,2696
2017-11-14T18:16:23.061Z,2696
2017-11-14T18:16:51.145Z,2696
2017-11-14T18:17:19.200Z,2696
2017-11-14T18:17:47.270Z,2696
2017-11-14T18:18:15.448Z,2700
2017-11-14T18:18:43.432Z,2696
2017-11-14T18:19:11.499Z,2692
2017-11-14T18:19:39.573Z,2692
2017-11-14T18:20:07.591Z,2680
2017-11-14T18:20:35.900Z,2680
2017-11-14T18:21:04.389Z,2688
2017-11-14T18:21:32.385Z,2688
2017-11-14T18:22:00.297Z,2684
2017-11-14T18:22:28.561Z,2672
2017-11-14T18:22:56.571Z,2668
2017-11-14T18:23:24.446Z,2672
2017-11-14T18:23:52.765Z,2656
2017-11-14T18:24:20.846Z,2664
2017-11-14T18:24:48.896Z,2680
2017-11-14T18:25:17.578Z,2692
2017-11-14T18:25:45.615Z,2676
2017-11-14T18:26:13.807Z,2688
2017-11-14T18:26:42.749Z,2696
2017-11-14T18:27:10.812Z,2680
2017-11-14T18:27:38.674Z,2684
2017-11-14T18:28:06.642Z,2672
2017-11-14T18:28:34.615Z,2656
2017-11-14T18:29:02.673Z,2656
2017-11-14T18:29:30.572Z,2660
2017-11-14T18:29:58.666Z,2656
2017-11-14T18:30:26.639Z,2644
2017-11-14T18:30:56.015Z,2644
2017-11-14T18:31:23.934Z,2648
2017-11-14T18:31:52.123Z,2648
2017-11-14T18:32:20.821Z,2652
2017-11-14T18:32:48.898Z,2636
2017-11-14T18:33:17.113Z,2632
2017-11-14T18:33:45.284Z,2632
2017-11-14T18:34:13.169Z,2628
2017-11-14T18:34:41.234Z,2632
2017-11-14T18:35:09.413Z,2632
2017-11-14T18:35:37.482Z,2636
2017-11-14T18:36:05.545Z,2632
2017-11-14T18:36:33.546Z,2624
2017-11-14T18:37:01.504Z,2616
2017-11-14T18:37:29.508Z,2620
2017-11-14T18:37:57.512Z,2616
2017-11-14T18:38:25.408Z,2612
2017-11-14T18:38:53.582Z,2612
2017-11-14T18:39:21.657Z,2608
2017-11-14T18:39:49.873Z,2604
2017-11-14T18:40:17.895Z,2600
2017-11-14T18:40:46.376Z,2592
2017-11-14T18:41:14.371Z,2596
2017-11-14T18:41:42.342Z,2592
2017-11-14T18:42:10.316Z,2588
2017-11-14T18:42:38.538Z,2588
2017-11-14T18:43:06.576Z,2584
2017-11-14T18:43:34.705Z,2576
2017-11-14T18:44:02.722Z,2584
2017-11-14T18:44:30.702Z,2584
2017-11-14T18:44:58.814Z,2584
2017-11-14T18:45:26.896Z,2592
2017-11-14T18:45:54.878Z,2588
2017-11-14T18:46:23.047Z,2588
2017-11-14T18:46:51.030Z,2592
2017-11-14T18:47:19.050Z,2584
2017-11-14T18:47:47.257Z,2580
2017-11-14T18:48:15.535Z,2556
2017-11-14T18:48:43.342Z,2560
2017-11-14T18:49:11.322Z,2568
2017-11-14T18:49:39.394Z,2560
2017-11-14T18:50:07.718Z,2560
2017-11-14T18:50:35.768Z,2556
2017-11-14T18:51:03.857Z,2564
2017-11-14T18:51:32.220Z,2568
2017-11-14T18:52:00.754Z,2568
2017-11-14T18:52:29.270Z,2560
2017-11-14T18:52:57.271Z,2548
2017-11-14T18:53:25.049Z,2560
2017-11-14T18:53:53.134Z,2548
2017-11-14T18:54:21.181Z,2544
2017-11-14T18:54:49.202Z,2536
2017-11-14T18:55:17.480Z,2528
2017-11-14T18:55:46.061Z,2532
2017-11-14T18:56:14.022Z,2540
2017-11-14T18:56:42.629Z,2540
2017-11-14T18:57:11.219Z,2536
2017-11-14T18:57:39.607Z,2532
2017-11-14T18:58:08.091Z,2528
2017-11-14T18:58:37.253Z,2520
2017-11-14T18:59:05.134Z,2516
2017-11-14T18:59:33.424Z,2508
2017-11-14T19:00:01.591Z,2504
2017-11-14T19:00:30.439Z,2496
2017-11-14T19:00:58.302Z,2504
2017-11-14T19:01:26.395Z,2504
2017-11-14T19:01:54.758Z,2504
2017-11-14T19:02:23.503Z,2504
2017-11-14T19:02:51.757Z,2492
2017-11-14T19:03:19.829Z,2492
2017-11-14T19:03:48.009Z,2484
2017-11-14T19:04:16.157Z,2484
2017-11-14T19:04:44.393Z,2500
2017-11-14T19:05:12.669Z,2492
2017-11-14T19:05:40.556Z,2512
2017-11-14T19:06:08.622Z,2496
2017-11-14T19:06:37.009Z,2488
2017-11-14T19:07:05.070Z,2488
2017-11-14T19:07:33.496Z,2500
2017-11-14T19:08:01.464Z,2508
2017-11-14T19:08:29.644Z,2504
2017-11-14T19:08:58.104Z,2484
2017-11-14T19:09:26.083Z,2488
2017-11-14T19:09:54.033Z,2484
2017-11-14T19:10:22.081Z,2468
2017-11-14T19:10:50.535Z,2456
2017-11-14T19:11:18.931Z,2456
2017-11-14T19:11:46.883Z,2444
2017-11-14T19:12:14.941Z,2444
2017-11-14T19:12:42.996Z,2444
2017-11-14T19:13:10.850Z,2444
2017-11-14T19:13:38.823Z,2440
2017-11-14T19:14:06.925Z,2436
2017-11-14T19:14:34.970Z,2436
2017-11-14T19:15:02.948Z,2436
2017-11-14T19:15:31.409Z,2420
2017-11-14T19:15:59.308Z,2424
2017-11-14T19:16:27.371Z,2416
2017-11-14T19:16:55.538Z,2416
2017-11-14T19:17:23.599Z,2420
2017-11-14T19:17:51.550Z,2416
2017-11-14T19:18:19.697Z,2416
2017-11-14T19:18:47.739Z,2416
2017-11-14T19:19:15.804Z,2408
2017-11-14T19:19:43.978Z,2400
2017-11-14T19:20:12.041Z,2404
2017-11-14T19:20:40.362Z,2408
2017-11-14T19:21:08.523Z,2396
2017-11-14T19:21:36.696Z,2392
2017-11-14T19:22:04.842Z,2396
2017-11-14T19:22:32.704Z,2392
2017-11-14T19:23:00.850Z,2392
2017-11-14T19:23:28.900Z,2384
2017-11-14T19:23:56.837Z,2380
2017-11-14T19:24:24.794Z,2384
2017-11-14T19:24:52.887Z,2372
2017-11-14T19:25:20.970Z,2376
2017-11-14T19:25:49.039Z,2360
2017-11-14T19:26:17.009Z,2352
2017-11-14T19:26:45.086Z,2356
2017-11-14T19:27:13.249Z,2348
2017-11-14T19:27:41.210Z,2352
2017-11-14T19:28:09.200Z,2352
2017-11-14T19:28:37.335Z,2356
2017-11-14T19:29:05.398Z,2348
2017-11-14T19:29:33.364Z,2348
2017-11-14T19:30:01.358Z,2344
2017-11-14T19:30:29.256Z,2336
2017-11-14T19:30:57.301Z,2332
2017-11-14T19:31:25.335Z,2332
2017-11-14T19:31:53.379Z,2328
2017-11-14T19:32:21.568Z,2320
2017-11-14T19:32:49.854Z,2332
2017-11-14T19:33:18.143Z,2328
2017-11-14T19:33:46.262Z,2320
2017-11-14T19:34:14.239Z,2324
2017-11-14T19:34:42.514Z,2316
2017-11-14T19:35:10.593Z,2316
2017-11-14T19:35:38.947Z,2312
2017-11-14T19:36:07.009Z,2292
2017-11-14T19:36:35.171Z,2292
2017-11-14T19:37:03.379Z,2292
2017-11-14T19:37:31.343Z,2288
2017-11-14T19:37:59.207Z,2288
2017-11-14T19:38:27.265Z,2292
2017-11-14T19:38:55.117Z,2288
2017-11-14T19:39:23.085Z,2284
2017-11-14T19:39:51.057Z,2292
2017-11-14T19:40:19.154Z,2284
2017-11-14T19:40:47.226Z,2288
2017-11-14T19:41:15.192Z,2284
2017-11-14T19:41:43.323Z,2280
2017-11-14T19:42:11.334Z,2276
2017-11-14T19:42:39.508Z,2272
2017-11-14T19:43:07.375Z,2276
2017-11-14T19:43:35.540Z,2276
2017-11-14T19:44:03.848Z,2268
2017-11-14T19:44:31.924Z,2260
2017-11-14T19:45:00.650Z,2264
2017-11-14T19:45:28.615Z,2260